Time;durP1;ratioP1;P1;durP2;ratioP2;P2;SDS_P1;SDS_P2;PMS_P1;PMS_P2;Temp;Humidity;BMP_temperature;BMP_pressure;BME280_temperature;BME280_humidity;BME280_pressure;Samples;Min_cycle;Max_cycle;Signal;HPM_P1;HPM_P2
2024/01/11 00:01:19;;;;;;;38.17;20.35;;;;;;;;;;4900444;29;20066;-93
2024/01/11 00:03:45;;;;;;;39.15;21.60;;;;;;;;;;4887444;29;20044;-92
2024/01/11 00:06:11;;;;;;;33.45;18.63;;;;;;;;;;4897178;29;20056;-93
2024/01/11 00:08:38;;;;;;;31.23;17.83;;;;;;;;;;4894820;29;20052;-93
2024/01/11 00:11:04;;;;;;;38.08;18.83;;;;;;;;;;4905612;29;20051;-93
2024/01/11 00:13:30;;;;;;;34.38;18.55;;;;;;;;;;4890932;29;20544;-91
2024/01/11 00:15:56;;;;;;;35.08;17.85;;;;;;;;;;4890229;29;20039;-93
2024/01/11 00:18:22;;;;;;;35.28;19.27;;;;;;;;;;4889987;29;20453;-92
2024/01/11 00:20:48;;;;;;;37.45;18.60;;;;;;;;;;4905729;29;20107;-93
2024/01/11 00:23:14;;;;;;;36.30;19.05;;;;;;;;;;4905314;29;20079;-92
2024/01/11 00:25:40;;;;;;;37.30;19.42;;;;;;;;;;4901270;29;20129;-92
2024/01/11 00:28:06;;;;;;;36.60;18.10;;;;;;;;;;4901955;29;20078;-92
2024/01/11 00:30:32;;;;;;;36.25;17.52;;;;;;;;;;4886199;29;20412;-92
2024/01/11 00:32:59;;;;;;;33.88;18.88;;;;;;;;;;4898973;29;20091;-92
2024/01/11 00:35:25;;;;;;;32.05;17.27;;;;;;;;;;4885260;29;20049;-90
2024/01/11 00:37:51;;;;;;;35.25;19.23;;;;;;;;;;4886164;29;20040;-92
2024/01/11 00:40:17;;;;;;;32.90;17.92;;;;;;;;;;4892830;29;20138;-92
2024/01/11 00:42:43;;;;;;;33.03;18.05;;;;;;;;;;4924300;29;20044;-92
2024/01/11 00:45:09;;;;;;;31.60;19.67;;;;;;;;;;4906579;29;20047;-93
2024/01/11 00:47:35;;;;;;;37.05;19.30;;;;;;;;;;4890060;29;20071;-92
2024/01/11 00:50:01;;;;;;;35.58;20.40;;;;;;;;;;4889060;29;20055;-92
2024/01/11 00:52:27;;;;;;;40.15;21.35;;;;;;;;;;4880610;29;20048;-92
2024/01/11 00:54:54;;;;;;;40.47;19.88;;;;;;;;;;4889229;29;20044;-93
2024/01/11 00:57:20;;;;;;;39.33;19.67;;;;;;;;;;4893958;29;20051;-93
2024/01/11 00:59:47;;;;;;;37.00;18.77;;;;;;;;;;4922165;29;20497;-93
2024/01/11 01:02:14;;;;;;;40.45;20.33;;;;;;;;;;4926621;29;20051;-92
2024/01/11 01:04:44;;;;;;;35.28;19.38;;;;;;;;;;4928135;29;20083;-93
2024/01/11 01:07:10;;;;;;;44.53;22.05;;;;;;;;;;4930235;29;20056;-92
2024/01/11 01:09:36;;;;;;;42.03;20.27;;;;;;;;;;4913530;29;20069;-91
2024/01/11 01:12:03;;;;;;;39.47;19.40;;;;;;;;;;4907770;29;20049;-92
2024/01/11 01:14:40;;;;;;;45.38;20.48;;;;;;;;;;4927652;29;20044;-92
2024/01/11 01:17:09;;;;;;;41.13;20.33;;;;;;;;;;4916435;29;20588;-92
2024/01/11 01:19:36;;;;;;;40.80;20.23;;;;;;;;;;4930149;29;20059;-93
2024/01/11 01:22:23;;;;;;;36.75;19.38;;;;;;;;;;4912682;29;20048;-93
2024/01/11 01:24:49;;;;;;;42.65;21.50;;;;;;;;;;4892800;29;20458;-95
2024/01/11 01:27:17;;;;;;;42.78;20.60;;;;;;;;;;4897643;29;20498;-93
2024/01/11 01:29:46;;;;;;;42.40;19.67;;;;;;;;;;4898971;29;20095;-93
2024/01/11 01:32:12;;;;;;;37.95;20.88;;;;;;;;;;4913856;29;20067;-92
2024/01/11 01:34:39;;;;;;;38.63;20.05;;;;;;;;;;4901184;29;20049;-92
2024/01/11 01:37:05;;;;;;;38.97;20.40;;;;;;;;;;4897628;29;20052;-92
2024/01/11 01:39:32;;;;;;;38.25;19.52;;;;;;;;;;4899660;29;20040;-93
2024/01/11 01:41:58;;;;;;;41.20;19.27;;;;;;;;;;4912350;29;20052;-93
2024/01/11 01:44:24;;;;;;;41.65;20.23;;;;;;;;;;4917244;29;20048;-92
2024/01/11 01:46:50;;;;;;;44.75;21.90;;;;;;;;;;4913198;29;20058;-92
2024/01/11 01:49:22;;;;;;;43.97;21.30;;;;;;;;;;4937663;29;20039;-93
2024/01/11 01:51:48;;;;;;;37.97;20.00;;;;;;;;;;4907784;29;20049;-93
2024/01/11 01:54:14;;;;;;;44.58;20.45;;;;;;;;;;4899991;29;20138;-93
2024/01/11 01:56:41;;;;;;;43.63;19.63;;;;;;;;;;4900623;29;20131;-93
2024/01/11 01:59:08;;;;;;;37.45;18.75;;;;;;;;;;4902150;29;20060;-93
2024/01/11 02:01:34;;;;;;;40.90;19.40;;;;;;;;;;4918766;29;20052;-94
2024/01/11 02:04:01;;;;;;;43.30;20.17;;;;;;;;;;4928929;29;20048;-93
2024/01/11 02:06:29;;;;;;;37.30;18.10;;;;;;;;;;4908297;29;20048;-95
2024/01/11 02:08:55;;;;;;;38.13;18.60;;;;;;;;;;4913356;29;20075;-92
2024/01/11 02:11:25;;;;;;;38.40;20.15;;;;;;;;;;4898706;29;20052;-93
2024/01/11 02:13:51;;;;;;;35.13;20.38;;;;;;;;;;4899561;29;20044;-93
2024/01/11 02:16:17;;;;;;;37.25;19.55;;;;;;;;;;4901125;29;20060;-93
2024/01/11 02:18:43;;;;;;;43.00;20.80;;;;;;;;;;4903374;29;20108;-92
2024/01/11 02:21:12;;;;;;;37.60;20.55;;;;;;;;;;4908068;29;20072;-93
2024/01/11 02:23:46;;;;;;;39.88;19.08;;;;;;;;;;4916764;29;20055;-92
2024/01/11 02:26:16;;;;;;;36.80;19.98;;;;;;;;;;4900788;29;20049;-92
2024/01/11 02:28:45;;;;;;;37.70;18.60;;;;;;;;;;4908287;29;20052;-93
2024/01/11 02:31:13;;;;;;;31.67;17.25;;;;;;;;;;4916047;29;20040;-92
2024/01/11 02:33:39;;;;;;;36.97;19.92;;;;;;;;;;4920000;29;20047;-95
2024/01/11 02:36:06;;;;;;;33.45;19.27;;;;;;;;;;4915906;29;20043;-93
2024/01/11 02:38:36;;;;;;;34.13;18.30;;;;;;;;;;4934721;29;20040;-92
2024/01/11 02:41:08;;;;;;;41.70;20.40;;;;;;;;;;4901570;29;20081;-93
2024/01/11 02:43:39;;;;;;;35.47;20.20;;;;;;;;;;4902343;29;20104;-93
2024/01/11 02:46:05;;;;;;;36.17;19.45;;;;;;;;;;4902293;29;20073;-93
2024/01/11 02:48:31;;;;;;;42.15;20.73;;;;;;;;;;4901822;29;20057;-94
2024/01/11 02:50:58;;;;;;;34.85;18.05;;;;;;;;;;4905701;29;20050;-92
2024/01/11 02:53:24;;;;;;;41.30;20.85;;;;;;;;;;4915990;29;20052;-92
2024/01/11 02:55:51;;;;;;;37.78;20.17;;;;;;;;;;4917652;29;20055;-94
2024/01/11 02:58:20;;;;;;;37.80;19.05;;;;;;;;;;4911244;29;20509;-93
2024/01/11 03:00:49;;;;;;;42.22;20.75;;;;;;;;;;4885531;29;20188;-95
2024/01/11 03:03:18;;;;;;;45.95;22.00;;;;;;;;;;4885522;29;20052;-93
2024/01/11 03:05:46;;;;;;;38.00;21.92;;;;;;;;;;4891947;29;20399;-94
2024/01/11 03:08:14;;;;;;;37.30;20.58;;;;;;;;;;4885478;29;20079;-94
2024/01/11 03:10:40;;;;;;;41.65;22.08;;;;;;;;;;4901203;29;20048;-94
2024/01/11 03:13:06;;;;;;;38.53;20.95;;;;;;;;;;4901075;29;20044;-94
2024/01/11 03:15:55;;;;;;;41.50;21.15;;;;;;;;;;4907516;29;20476;-93
2024/01/11 03:18:26;;;;;;;41.10;20.27;;;;;;;;;;4885519;29;20104;-95
2024/01/11 03:21:02;;;;;;;47.22;23.88;;;;;;;;;;4905764;29;20040;-93
2024/01/11 03:23:40;;;;;;;57.80;26.85;;;;;;;;;;4916121;29;20048;-94
2024/01/11 03:26:14;;;;;;;57.50;26.38;;;;;;;;;;4916968;29;20040;-94
2024/01/11 03:28:51;;;;;;;52.67;26.90;;;;;;;;;;4916362;29;20401;-93
2024/01/11 03:31:23;;;;;;;57.53;26.75;;;;;;;;;;4899554;29;20095;-94
2024/01/11 03:34:09;;;;;;;50.75;25.52;;;;;;;;;;4916112;29;20429;-93
2024/01/11 03:36:36;;;;;;;43.72;22.23;;;;;;;;;;4902852;29;20112;-94
2024/01/11 03:39:02;;;;;;;42.13;22.10;;;;;;;;;;4896301;29;20055;-94
2024/01/11 03:41:28;;;;;;;38.28;20.25;;;;;;;;;;4896667;29;20052;-95
2024/01/11 03:43:57;;;;;;;42.95;23.35;;;;;;;;;;4903715;29;20051;-95
2024/01/11 03:46:23;;;;;;;42.63;21.10;;;;;;;;;;4906226;29;20056;-94
2024/01/11 03:48:52;;;;;;;40.00;19.73;;;;;;;;;;4905655;29;20048;-94
2024/01/11 03:51:18;;;;;;;37.78;19.30;;;;;;;;;;4905022;29;20055;-95
2024/01/11 03:53:45;;;;;;;38.22;19.40;;;;;;;;;;4896455;29;20048;-95
2024/01/11 03:56:13;;;;;;;38.85;19.42;;;;;;;;;;4853025;29;20144;-95
2024/01/11 03:58:41;;;;;;;47.38;21.42;;;;;;;;;;4853383;29;20049;-96
2024/01/11 04:01:12;;;;;;;42.05;23.33;;;;;;;;;;4868014;29;20059;-94
2024/01/11 04:03:42;;;;;;;40.67;20.45;;;;;;;;;;4884441;29;20056;-94
2024/01/11 04:06:20;;;;;;;35.35;18.30;;;;;;;;;;4884119;29;20036;-95
2024/01/11 04:08:50;;;;;;;41.53;20.55;;;;;;;;;;4899409;29;20096;-95
2024/01/11 04:11:23;;;;;;;45.40;22.00;;;;;;;;;;4903920;29;20059;-94
2024/01/11 04:13:52;;;;;;;43.38;22.05;;;;;;;;;;4908933;29;20410;-95
2024/01/11 04:19:15;;;;;;;45.70;21.30;;;;;;;;;;4890259;29;20069;-95
2024/01/11 04:21:47;;;;;;;38.00;20.67;;;;;;;;;;4895631;29;20060;-96
2024/01/11 04:24:18;;;;;;;42.50;20.73;;;;;;;;;;4905283;29;20044;-96
2024/01/11 04:26:50;;;;;;;40.15;19.90;;;;;;;;;;4908659;29;20056;-94
2024/01/11 04:29:21;;;;;;;39.42;20.30;;;;;;;;;;4900299;29;20044;-96
2024/01/11 04:31:58;;;;;;;44.00;19.85;;;;;;;;;;4843567;29;20091;-95
2024/01/11 04:34:27;;;;;;;40.55;20.20;;;;;;;;;;4886552;29;20053;-95
2024/01/11 04:37:06;;;;;;;40.28;20.33;;;;;;;;;;4871102;29;20077;-96
2024/01/11 04:39:38;;;;;;;39.70;20.88;;;;;;;;;;4886466;29;20113;-96
2024/01/11 04:42:07;;;;;;;41.00;20.83;;;;;;;;;;4873409;29;20049;-95
2024/01/11 04:44:54;;;;;;;;;;;;;;;;;;;;;
2024/01/11 11:08:14;;;;;;;33.78;18.55;;;;;;;;;;4959038;29;20035;-96
2024/01/11 11:11:07;;;;;;;33.00;17.45;;;;;;;;;;4938402;29;20123;-96
2024/01/11 11:13:47;;;;;;;33.25;18.50;;;;;;;;;;4925332;29;20048;-96
2024/01/11 11:16:19;;;;;;;41.47;19.35;;;;;;;;;;4911916;29;20052;-96
2024/01/11 11:18:48;;;;;;;31.33;17.27;;;;;;;;;;4916225;29;20549;-96
2024/01/11 11:21:25;;;;;;;;;;;;;;;;;;;;;
2024/01/11 11:23:56;;;;;;;28.73;15.75;;;;;;;;;;4934797;29;20138;-95
2024/01/11 11:26:22;;;;;;;33.72;17.38;;;;;;;;;;4922880;29;20102;-94
2024/01/11 11:28:57;;;;;;;29.92;17.70;;;;;;;;;;4921374;29;20106;-95
2024/01/11 11:31:42;;;;;;;29.38;17.42;;;;;;;;;;4919580;29;20489;-96
2024/01/11 11:34:19;;;;;;;31.25;16.10;;;;;;;;;;4904026;29;20051;-93
2024/01/11 11:36:49;;;;;;;32.08;17.60;;;;;;;;;;4904824;29;20044;-95
2024/01/11 11:39:16;;;;;;;29.33;15.93;;;;;;;;;;4887111;29;20051;-96
2024/01/11 11:41:43;;;;;;;26.13;15.82;;;;;;;;;;4885797;29;20052;-96
2024/01/11 11:44:15;;;;;;;27.10;15.05;;;;;;;;;;4884865;29;20051;-95
2024/01/11 11:46:47;;;;;;;26.15;15.68;;;;;;;;;;4885275;29;20218;-96
2024/01/11 11:49:14;;;;;;;25.30;15.82;;;;;;;;;;4888309;29;20127;-96
2024/01/11 11:51:43;;;;;;;30.23;15.80;;;;;;;;;;4899536;29;20053;-96
2024/01/11 11:54:14;;;;;;;29.35;17.83;;;;;;;;;;4893811;29;20052;-96
2024/01/11 11:56:40;;;;;;;27.75;15.63;;;;;;;;;;4902223;29;20044;-96
2024/01/11 11:59:07;;;;;;;25.80;15.07;;;;;;;;;;4901793;29;20040;-96
2024/01/11 12:01:34;;;;;;;29.10;16.63;;;;;;;;;;4901536;29;20063;-96
2024/01/11 12:04:04;;;;;;;29.98;15.60;;;;;;;;;;4900845;29;20145;-96
2024/01/11 12:06:30;;;;;;;26.00;14.93;;;;;;;;;;4900662;29;20080;-95
2024/01/11 12:08:57;;;;;;;26.45;15.43;;;;;;;;;;4900212;29;20115;-95
2024/01/11 12:11:23;;;;;;;27.27;16.15;;;;;;;;;;4880036;29;20107;-95
2024/01/11 12:13:50;;;;;;;26.63;14.85;;;;;;;;;;4881856;29;20044;-95
2024/01/11 12:16:16;;;;;;;27.65;15.82;;;;;;;;;;4897191;29;20131;-95
2024/01/11 12:18:42;;;;;;;26.27;15.35;;;;;;;;;;4900349;29;20044;-96
2024/01/11 12:21:08;;;;;;;28.42;14.60;;;;;;;;;;4895064;29;20045;-95
2024/01/11 12:23:35;;;;;;;29.58;16.67;;;;;;;;;;4881230;29;20040;-95
2024/01/11 12:26:03;;;;;;;28.85;15.13;;;;;;;;;;4881717;29;20068;-95
2024/01/11 12:28:30;;;;;;;26.08;14.90;;;;;;;;;;4899451;29;20055;-96
2024/01/11 12:30:56;;;;;;;28.05;15.20;;;;;;;;;;4898558;29;20055;-95
2024/01/11 12:33:22;;;;;;;24.65;15.35;;;;;;;;;;4881112;29;20075;-96
2024/01/11 12:35:48;;;;;;;25.98;14.32;;;;;;;;;;4896127;29;20054;-94
2024/01/11 12:38:15;;;;;;;21.85;13.68;;;;;;;;;;4903499;29;20052;-96
2024/01/11 12:40:41;;;;;;;34.53;17.35;;;;;;;;;;4887778;29;20135;-96
2024/01/11 12:43:08;;;;;;;28.02;14.23;;;;;;;;;;4895338;29;20129;-96
2024/01/11 12:45:38;;;;;;;29.88;16.00;;;;;;;;;;4884668;29;20104;-93
2024/01/11 12:48:07;;;;;;;37.00;15.77;;;;;;;;;;4884574;29;20049;-94
2024/01/11 12:50:33;;;;;;;25.27;13.07;;;;;;;;;;4884940;29;20041;-95
2024/01/11 12:53:16;;;;;;;34.33;14.30;;;;;;;;;;4885030;29;20056;-96
2024/01/11 12:55:42;;;;;;;26.38;13.98;;;;;;;;;;4884850;29;20466;-95
2024/01/11 12:58:12;;;;;;;27.60;14.73;;;;;;;;;;4884647;29;20056;-96
2024/01/11 13:00:38;;;;;;;26.23;13.98;;;;;;;;;;4902036;29;20036;-95
2024/01/11 13:03:05;;;;;;;29.15;13.32;;;;;;;;;;4902729;29;20048;-95
2024/01/11 13:05:34;;;;;;;19.83;13.57;;;;;;;;;;4899716;29;20088;-95
2024/01/11 13:08:10;;;;;;;26.45;13.45;;;;;;;;;;4884151;29;20112;-94
2024/01/11 13:10:37;;;;;;;21.83;14.27;;;;;;;;;;4902464;29;20063;-96
2024/01/11 13:13:04;;;;;;;24.92;14.27;;;;;;;;;;4871803;29;20556;-94
2024/01/11 13:15:31;;;;;;;32.33;15.32;;;;;;;;;;4907162;29;20504;-94
2024/01/11 13:18:00;;;;;;;26.58;14.18;;;;;;;;;;4918363;29;20044;-95
2024/01/11 13:20:26;;;;;;;32.83;14.88;;;;;;;;;;4918606;29;20048;-95
2024/01/11 13:23:11;;;;;;;25.25;14.05;;;;;;;;;;4921964;29;20035;-95
2024/01/11 13:25:39;;;;;;;24.25;14.30;;;;;;;;;;4906426;29;20083;-95
2024/01/11 13:28:06;;;;;;;23.50;14.95;;;;;;;;;;4905370;29;20044;-96
2024/01/11 13:30:32;;;;;;;31.65;14.48;;;;;;;;;;4905287;29;20044;-96
2024/01/11 13:32:59;;;;;;;23.50;13.27;;;;;;;;;;4891040;29;20048;-94
2024/01/11 13:35:25;;;;;;;23.67;13.57;;;;;;;;;;4905676;29;20297;-95
2024/01/11 13:37:51;;;;;;;25.58;13.77;;;;;;;;;;4905611;29;20047;-95
2024/01/11 13:40:17;;;;;;;21.35;10.90;;;;;;;;;;4903698;29;20131;-95
2024/01/11 13:42:44;;;;;;;30.55;14.10;;;;;;;;;;4905474;29;20043;-96
2024/01/11 13:45:29;;;;;;;;;;;;;;;;;;;;;
2024/01/11 13:48:13;;;;;;;24.77;13.65;;;;;;;;;;4901835;29;20052;-95
2024/01/11 13:51:01;;;;;;;;;;;;;;;;;;;;;
2024/01/11 13:53:57;;;;;;;24.90;13.15;;;;;;;;;;4920317;29;20048;-95
2024/01/11 13:57:20;;;;;;;32.15;12.35;;;;;;;;;;4921917;29;20056;-95
2024/01/11 13:59:49;;;;;;;18.80;12.00;;;;;;;;;;4920120;29;20052;-95
2024/01/11 14:02:15;;;;;;;22.38;12.77;;;;;;;;;;4905404;29;20044;-95
2024/01/11 14:04:44;;;;;;;23.70;12.88;;;;;;;;;;4893771;29;20104;-95
2024/01/11 14:07:10;;;;;;;28.20;11.57;;;;;;;;;;4886006;29;20044;-95
2024/01/11 14:09:39;;;;;;;24.17;12.35;;;;;;;;;;4886377;29;20052;-95
2024/01/11 14:12:05;;;;;;;29.58;12.30;;;;;;;;;;4885975;29;20044;-95
2024/01/11 14:14:31;;;;;;;26.85;12.15;;;;;;;;;;4886484;29;20040;-94
2024/01/11 14:16:57;;;;;;;22.90;13.30;;;;;;;;;;4886383;29;20131;-95
2024/01/11 14:19:24;;;;;;;26.70;13.05;;;;;;;;;;4888078;29;20040;-95
2024/01/11 14:21:50;;;;;;;24.10;11.82;;;;;;;;;;4904429;29;20504;-95
2024/01/11 14:24:16;;;;;;;31.42;13.10;;;;;;;;;;4905757;29;20054;-96
2024/01/11 14:26:43;;;;;;;24.85;13.85;;;;;;;;;;4908345;29;20047;-95
2024/01/11 14:29:10;;;;;;;22.08;12.13;;;;;;;;;;4909215;29;20110;-95
2024/01/11 14:31:37;;;;;;;28.77;12.88;;;;;;;;;;4891526;29;20519;-95
2024/01/11 14:34:03;;;;;;;26.13;15.23;;;;;;;;;;4905099;29;20196;-95
2024/01/11 14:36:30;;;;;;;23.02;12.25;;;;;;;;;;4902981;29;20494;-95
2024/01/11 14:38:56;;;;;;;25.13;13.00;;;;;;;;;;4904368;29;20048;-95
2024/01/11 14:41:22;;;;;;;20.23;13.65;;;;;;;;;;4904342;29;20075;-96
2024/01/11 14:43:49;;;;;;;22.13;12.35;;;;;;;;;;4904512;29;20055;-95
2024/01/11 14:46:15;;;;;;;30.35;13.70;;;;;;;;;;4888430;29;20047;-96
2024/01/11 14:48:41;;;;;;;26.75;12.57;;;;;;;;;;4904248;29;20095;-95
2024/01/11 14:51:08;;;;;;;31.65;13.05;;;;;;;;;;4904132;29;20043;-95
2024/01/11 14:53:34;;;;;;;24.10;12.20;;;;;;;;;;4903949;29;20054;-95
2024/01/11 14:56:00;;;;;;;25.27;12.73;;;;;;;;;;4904064;29;20094;-96
2024/01/11 14:58:26;;;;;;;22.67;12.77;;;;;;;;;;4903211;29;20059;-96
2024/01/11 15:00:55;;;;;;;25.00;13.32;;;;;;;;;;4904064;29;20134;-95
2024/01/11 15:03:21;;;;;;;22.20;12.32;;;;;;;;;;4903691;29;20412;-96
2024/01/11 15:05:47;;;;;;;26.27;11.60;;;;;;;;;;4903515;29;20418;-96
2024/01/11 15:08:15;;;;;;;20.10;12.30;;;;;;;;;;4899387;29;20482;-96
2024/01/11 15:10:55;;;;;;;33.25;13.55;;;;;;;;;;4870725;29;20099;-96
2024/01/11 15:14:01;;;;;;;23.55;11.70;;;;;;;;;;4872130;29;20060;-94
2024/01/11 15:16:31;;;;;;;25.38;12.30;;;;;;;;;;4850128;29;20040;-95
2024/01/11 15:19:03;;;;;;;31.15;13.48;;;;;;;;;;4888962;29;20044;-96
2024/01/11 15:21:32;;;;;;;36.50;12.35;;;;;;;;;;4889232;29;20094;-95
2024/01/11 15:23:59;;;;;;;28.80;11.90;;;;;;;;;;4890066;29;20043;-96
2024/01/11 15:26:26;;;;;;;23.25;10.75;;;;;;;;;;4873680;29;20083;-96
2024/01/11 15:28:53;;;;;;;24.98;13.48;;;;;;;;;;4903465;29;20044;-96
2024/01/11 15:31:19;;;;;;;28.17;12.48;;;;;;;;;;4903768;29;20052;-96
2024/01/11 15:33:45;;;;;;;29.85;11.38;;;;;;;;;;4904920;29;20108;-96
2024/01/11 15:36:12;;;;;;;26.60;12.30;;;;;;;;;;4903221;29;20046;-96
2024/01/11 15:38:38;;;;;;;28.17;12.25;;;;;;;;;;4906685;29;20072;-96
2024/01/11 15:41:07;;;;;;;26.67;12.15;;;;;;;;;;4924698;29;20501;-96
2024/01/11 15:43:33;;;;;;;23.48;11.55;;;;;;;;;;4910429;29;20050;-95
2024/01/11 15:46:02;;;;;;;32.33;11.60;;;;;;;;;;4912558;29;20048;-95
2024/01/11 15:48:28;;;;;;;28.95;12.45;;;;;;;;;;4913093;29;20124;-96
2024/01/11 15:50:57;;;;;;;20.75;11.40;;;;;;;;;;4912970;29;20205;-95
2024/01/11 15:53:23;;;;;;;26.95;11.23;;;;;;;;;;4915403;29;20047;-95
2024/01/11 15:55:50;;;;;;;21.35;11.10;;;;;;;;;;4914961;29;20106;-96
2024/01/11 15:58:17;;;;;;;23.05;12.27;;;;;;;;;;4905899;29;20127;-94
2024/01/11 16:00:43;;;;;;;27.90;11.18;;;;;;;;;;4916622;29;20190;-95
2024/01/11 16:03:12;;;;;;;27.95;10.68;;;;;;;;;;4888153;29;20062;-95
2024/01/11 16:05:38;;;;;;;28.80;11.85;;;;;;;;;;4899667;29;20103;-95
2024/01/11 16:08:07;;;;;;;23.83;9.65;;;;;;;;;;4884788;29;20059;-95
2024/01/11 16:10:34;;;;;;;31.17;9.40;;;;;;;;;;4887631;29;20528;-96
2024/01/11 16:13:00;;;;;;;29.08;10.57;;;;;;;;;;4902677;29;20501;-95
2024/01/11 16:15:26;;;;;;;21.00;9.80;;;;;;;;;;4902534;29;20051;-95
2024/01/11 16:17:52;;;;;;;26.88;10.38;;;;;;;;;;4902591;29;20095;-95
2024/01/11 16:20:18;;;;;;;17.70;9.45;;;;;;;;;;4902946;29;20122;-95
2024/01/11 16:22:44;;;;;;;26.30;8.48;;;;;;;;;;4903141;29;20078;-96
2024/01/11 16:25:10;;;;;;;16.98;6.18;;;;;;;;;;4903120;29;20043;-96
2024/01/11 16:27:37;;;;;;;17.25;9.43;;;;;;;;;;4902932;29;20500;-94
2024/01/11 16:30:04;;;;;;;24.90;7.47;;;;;;;;;;4894624;29;20068;-96
2024/01/11 16:32:31;;;;;;;16.42;6.47;;;;;;;;;;4899885;23;20484;-96
2024/01/11 16:34:57;;;;;;;20.45;7.22;;;;;;;;;;4887641;29;20516;-96
2024/01/11 16:37:23;;;;;;;19.38;5.95;;;;;;;;;;4903002;29;20044;-95
2024/01/11 16:40:01;;;;;;;21.63;5.45;;;;;;;;;;4912346;29;20043;-96
2024/01/11 16:42:27;;;;;;;22.73;5.47;;;;;;;;;;4908403;29;20048;-95
2024/01/11 16:44:54;;;;;;;24.50;5.35;;;;;;;;;;4889362;29;20369;-96
2024/01/11 16:47:24;;;;;;;17.90;5.28;;;;;;;;;;4885584;29;20048;-96
2024/01/11 16:49:51;;;;;;;23.27;4.88;;;;;;;;;;4883319;29;20901;-93
2024/01/11 16:52:49;;;;;;;24.70;5.63;;;;;;;;;;4909197;29;20080;-94
2024/01/11 16:56:10;;;;;;;23.65;6.78;;;;;;;;;;4843092;29;20046;-93
2024/01/11 16:58:48;;;;;;;26.48;7.68;;;;;;;;;;4835872;29;20053;-95
2024/01/11 17:04:21;;;;;;;23.70;6.10;;;;;;;;;;4853051;29;20057;-95
2024/01/11 17:06:48;;;;;;;15.90;5.22;;;;;;;;;;4846102;29;20049;-94
2024/01/11 17:14:42;;;;;;;22.05;7.00;;;;;;;;;;5011810;23;20052;-95
2024/01/11 17:17:51;;;;;;;27.00;5.32;;;;;;;;;;4998485;23;20071;-95
2024/01/11 17:20:36;;;;;;;13.25;4.70;;;;;;;;;;4937238;23;20080;-94
2024/01/11 17:23:31;;;;;;;27.80;5.50;;;;;;;;;;4923844;29;20047;-94
2024/01/11 17:46:54;;;;;;;18.45;4.28;;;;;;;;;;4890171;29;20092;-94
2024/01/11 17:49:59;;;;;;;11.68;3.63;;;;;;;;;;4954370;23;20096;-93
2024/01/11 17:52:42;;;;;;;13.90;4.53;;;;;;;;;;4925148;23;20069;-94
2024/01/11 17:58:40;;;;;;;11.55;4.63;;;;;;;;;;4979051;23;20052;-94
2024/01/11 18:01:26;;;;;;;14.20;5.00;;;;;;;;;;4898766;29;20053;-93
2024/01/11 18:07:06;;;;;;;16.25;3.65;;;;;;;;;;4863587;29;20076;-95
2024/01/11 18:09:34;;;;;;;9.45;3.63;;;;;;;;;;4807636;29;20065;-94
2024/01/11 18:12:01;;;;;;;24.05;4.65;;;;;;;;;;4817628;29;20050;-94
2024/01/11 18:14:45;;;;;;;20.42;4.18;;;;;;;;;;4838713;29;20046;-95
2024/01/11 18:17:17;;;;;;;21.17;5.25;;;;;;;;;;4807449;29;20083;-94
2024/01/11 18:19:43;;;;;;;22.40;3.45;;;;;;;;;;4887433;23;20067;-93
2024/01/11 18:22:16;;;;;;;13.00;4.40;;;;;;;;;;4896828;29;20037;-94
2024/01/11 18:24:47;;;;;;;20.52;4.28;;;;;;;;;;4888320;23;20037;-94
2024/01/11 18:27:14;;;;;;;13.15;3.50;;;;;;;;;;4948228;29;20054;-94
2024/01/11 18:29:43;;;;;;;12.60;3.30;;;;;;;;;;4905974;29;20040;-95
2024/01/11 18:32:35;;;;;;;10.05;3.47;;;;;;;;;;4926776;23;20048;-94
2024/01/11 18:35:12;;;;;;;12.32;4.32;;;;;;;;;;4893704;29;20048;-94
2024/01/11 18:37:38;;;;;;;10.38;2.88;;;;;;;;;;4889265;29;20049;-94
2024/01/11 18:40:06;;;;;;;34.30;4.00;;;;;;;;;;4859399;29;20059;-94
2024/01/11 18:42:32;;;;;;;11.20;3.85;;;;;;;;;;4875370;29;20138;-93
2024/01/11 18:45:00;;;;;;;17.98;4.03;;;;;;;;;;4875667;29;20093;-95
2024/01/11 18:47:45;;;;;;;17.80;3.88;;;;;;;;;;4898976;23;20056;-94
2024/01/11 18:50:12;;;;;;;13.77;3.92;;;;;;;;;;4885735;29;20445;-93
2024/01/11 18:52:42;;;;;;;9.63;3.33;;;;;;;;;;4905940;29;20064;-94
2024/01/11 18:55:19;;;;;;;9.40;2.90;;;;;;;;;;4878847;29;20042;-94
2024/01/11 18:57:47;;;;;;;20.95;3.42;;;;;;;;;;4900665;29;20509;-94
2024/01/11 19:00:22;;;;;;;14.98;3.05;;;;;;;;;;4881322;29;20049;-94
2024/01/11 22:18:36;;;;;;;11.77;4.63;;;;;;;;;;5740201;23;19922;-94
2024/01/11 22:21:04;;;;;;;21.70;4.45;;;;;;;;;;4906239;29;20154;-95
2024/01/11 22:23:30;;;;;;;13.63;4.28;;;;;;;;;;4928139;28;20058;-95
2024/01/11 22:25:57;;;;;;;11.98;4.57;;;;;;;;;;4910219;28;20062;-94
2024/01/11 22:28:23;;;;;;;17.55;5.10;;;;;;;;;;4925395;29;20039;-95
2024/01/11 22:30:51;;;;;;;11.43;5.50;;;;;;;;;;4912908;29;20074;-96
2024/01/11 22:33:18;;;;;;;14.60;5.53;;;;;;;;;;4916847;28;20050;-94
2024/01/11 22:35:44;;;;;;;15.38;5.85;;;;;;;;;;4907722;29;20119;-94
2024/01/11 22:38:10;;;;;;;11.35;5.10;;;;;;;;;;4905034;29;20457;-95
2024/01/11 22:40:37;;;;;;;11.07;4.85;;;;;;;;;;4900427;29;20102;-95
2024/01/11 22:43:04;;;;;;;7.60;4.70;;;;;;;;;;4909758;28;20047;-95
2024/01/11 22:45:33;;;;;;;11.13;4.35;;;;;;;;;;4918953;28;20126;-95
2024/01/11 22:47:59;;;;;;;11.73;5.57;;;;;;;;;;4916395;28;20047;-96
2024/01/11 22:50:26;;;;;;;14.05;5.72;;;;;;;;;;4919374;29;20047;-95
2024/01/11 22:52:52;;;;;;;12.95;4.78;;;;;;;;;;4911054;28;20064;-94
2024/01/11 22:55:18;;;;;;;14.23;5.05;;;;;;;;;;4904969;29;20055;-94
2024/01/11 22:57:44;;;;;;;9.95;4.63;;;;;;;;;;4905008;28;20453;-96
2024/01/11 23:00:20;;;;;;;13.90;5.55;;;;;;;;;;4907902;28;20058;-94
2024/01/11 23:02:50;;;;;;;16.30;5.32;;;;;;;;;;4912512;29;20106;-95
2024/01/11 23:05:17;;;;;;;14.23;4.80;;;;;;;;;;4906320;29;20108;-95
2024/01/11 23:07:43;;;;;;;14.25;5.22;;;;;;;;;;4899256;28;20138;-94
2024/01/11 23:10:12;;;;;;;11.90;4.88;;;;;;;;;;4914355;28;20048;-94
2024/01/11 23:12:39;;;;;;;13.55;4.68;;;;;;;;;;4901624;28;20075;-94
2024/01/11 23:15:05;;;;;;;12.50;4.85;;;;;;;;;;4896793;29;20032;-92
2024/01/11 23:17:31;;;;;;;13.93;5.15;;;;;;;;;;4892522;29;20084;-94
2024/01/11 23:19:58;;;;;;;11.15;5.30;;;;;;;;;;4910919;29;20056;-94
2024/01/11 23:22:24;;;;;;;11.00;5.47;;;;;;;;;;4885910;29;20048;-94
2024/01/11 23:24:50;;;;;;;11.35;5.10;;;;;;;;;;4899123;29;20504;-95
2024/01/11 23:27:17;;;;;;;14.52;4.75;;;;;;;;;;4899200;29;20049;-94
2024/01/11 23:29:43;;;;;;;9.32;5.45;;;;;;;;;;4889410;29;20044;-94
2024/01/11 23:32:10;;;;;;;9.52;4.47;;;;;;;;;;4896787;29;20052;-95
2024/01/11 23:34:36;;;;;;;15.05;4.47;;;;;;;;;;4905396;29;20043;-95
2024/01/11 23:37:02;;;;;;;19.67;5.78;;;;;;;;;;4913660;29;20062;-95
2024/01/11 23:39:28;;;;;;;14.48;4.78;;;;;;;;;;4897847;29;20051;-94
2024/01/11 23:41:54;;;;;;;9.48;5.43;;;;;;;;;;4904779;29;20091;-95
2024/01/11 23:44:21;;;;;;;15.00;4.95;;;;;;;;;;4889322;29;20055;-94
2024/01/11 23:46:47;;;;;;;13.50;5.65;;;;;;;;;;4893119;29;20067;-94
2024/01/11 23:49:13;;;;;;;13.43;5.70;;;;;;;;;;4898626;29;20048;-94
2024/01/11 23:51:39;;;;;;;11.55;5.13;;;;;;;;;;4870193;29;20045;-95
2024/01/11 23:54:05;;;;;;;9.18;5.35;;;;;;;;;;4893380;29;20052;-95
2024/01/11 23:56:31;;;;;;;11.35;5.63;;;;;;;;;;4895471;29;20056;-95
2024/01/11 23:58:57;;;;;;;5.65;4.50;;;;;;;;;;4882633;29;20052;-94
